KFUL/FUL METAR and TAF weather

Enter ICAO airport designator
Station Type Date Time Source
KFUL METAR 2021/03/09 08:53 UTC NOAA

KFUL 090853Z AUTO 08005KT 10SM CLR 11/05 A3013 RMK AO2 SLP203 T01060050 56013


Station Type Date Time Source
KFUL Decoded METAR 2021/03/09 08:53 UTC NOAA

FULLERTON MUNICIPAL AIRPORT , CA, United States (KFUL) 33-52N 117-59W 35M
Mar 09, 2021 - 03:53 AM EST / 2021.03.09 0853 UTC
Wind: from the E (080 degrees) at 6 MPH (5 KT):0
Visibility: 10 mile(s):0
Sky conditions: clear
Temperature: 51.1 F (10.6 C)
Dew Point: 41.0 F (5.0 C)
Relative Humidity: 68%
Pressure (altimeter): 30.13 in. Hg (1020 hPa)
Pressure tendency: 0.04 inches (1.3 hPa) lower than three hours ago
ob: KFUL 090853Z AUTO 08005KT 10SM CLR 11/05 A3013 RMK AO2 SLP203 T01060050 56013
cycle: 9

Station Type Date Time Source
KFUL TAF UTC NOAA

Error!

Example: see airport list